sensor_id;sensor_type;location;lat;lon;timestamp;temperature;humidity
72936;DHT22;61085;48.804;9.228;2023-02-28T00:01:08;-0.20;90.20
72936;DHT22;61085;48.804;9.228;2023-02-28T00:03:34;-0.20;90.00
72936;DHT22;61085;48.804;9.228;2023-02-28T00:06:04;-0.20;90.40
72936;DHT22;61085;48.804;9.228;2023-02-28T00:08:30;-0.20;90.20
72936;DHT22;61085;48.804;9.228;2023-02-28T00:10:56;-0.30;90.70
72936;DHT22;61085;48.804;9.228;2023-02-28T00:13:28;-0.30;90.60
72936;DHT22;61085;48.804;9.228;2023-02-28T00:16:05;-0.20;90.70
72936;DHT22;61085;48.804;9.228;2023-02-28T00:18:32;-0.30;90.90
72936;DHT22;61085;48.804;9.228;2023-02-28T00:20:58;-0.30;91.00
72936;DHT22;61085;48.804;9.228;2023-02-28T00:23:24;-0.30;91.30
72936;DHT22;61085;48.804;9.228;2023-02-28T00:25:50;-0.30;91.00
72936;DHT22;61085;48.804;9.228;2023-02-28T00:28:16;-0.30;91.30
72936;DHT22;61085;48.804;9.228;2023-02-28T00:30:42;-0.30;91.40
72936;DHT22;61085;48.804;9.228;2023-02-28T00:33:07;-0.30;91.40
72936;DHT22;61085;48.804;9.228;2023-02-28T00:35:33;-0.30;91.40
72936;DHT22;61085;48.804;9.228;2023-02-28T00:37:58;-0.30;91.60
72936;DHT22;61085;48.804;9.228;2023-02-28T00:40:24;-0.40;92.00
72936;DHT22;61085;48.804;9.228;2023-02-28T00:42:50;-0.40;91.90
72936;DHT22;61085;48.804;9.228;2023-02-28T00:45:15;-0.30;92.00
72936;DHT22;61085;48.804;9.228;2023-02-28T00:47:41;-0.40;92.20
72936;DHT22;61085;48.804;9.228;2023-02-28T00:50:07;-0.40;92.30
72936;DHT22;61085;48.804;9.228;2023-02-28T00:52:33;-0.50;92.50
72936;DHT22;61085;48.804;9.228;2023-02-28T00:54:59;-0.50;92.90
72936;DHT22;61085;48.804;9.228;2023-02-28T00:57:25;-0.40;92.90
72936;DHT22;61085;48.804;9.228;2023-02-28T00:59:50;-0.50;93.40
72936;DHT22;61085;48.804;9.228;2023-02-28T01:02:16;-0.50;93.30
72936;DHT22;61085;48.804;9.228;2023-02-28T01:04:43;-0.40;93.40
72936;DHT22;61085;48.804;9.228;2023-02-28T01:07:08;-0.40;93.40
72936;DHT22;61085;48.804;9.228;2023-02-28T01:09:34;-0.50;93.80
72936;DHT22;61085;48.804;9.228;2023-02-28T01:12:00;-0.50;94.00
72936;DHT22;61085;48.804;9.228;2023-02-28T01:14:25;-0.50;94.40
72936;DHT22;61085;48.804;9.228;2023-02-28T01:16:51;-0.50;94.50
72936;DHT22;61085;48.804;9.228;2023-02-28T01:19:17;-0.50;94.80
72936;DHT22;61085;48.804;9.228;2023-02-28T01:21:42;-0.50;95.00
72936;DHT22;61085;48.804;9.228;2023-02-28T01:24:08;-0.50;95.00
72936;DHT22;61085;48.804;9.228;2023-02-28T01:26:34;-0.50;95.20
72936;DHT22;61085;48.804;9.228;2023-02-28T01:28:59;-0.50;95.50
72936;DHT22;61085;48.804;9.228;2023-02-28T01:31:25;-0.50;95.50
72936;DHT22;61085;48.804;9.228;2023-02-28T01:33:52;-0.50;95.80
72936;DHT22;61085;48.804;9.228;2023-02-28T01:36:20;-0.60;96.20
72936;DHT22;61085;48.804;9.228;2023-02-28T01:38:47;-0.60;96.50
72936;DHT22;61085;48.804;9.228;2023-02-28T01:41:21;-0.60;96.60
72936;DHT22;61085;48.804;9.228;2023-02-28T01:46:14;-0.60;96.80
72936;DHT22;61085;48.804;9.228;2023-02-28T01:48:46;-0.40;97.20
72936;DHT22;61085;48.804;9.228;2023-02-28T01:51:17;-0.60;97.40
72936;DHT22;61085;48.804;9.228;2023-02-28T01:53:47;-0.60;97.50
72936;DHT22;61085;48.804;9.228;2023-02-28T01:56:17;-0.70;97.90
72936;DHT22;61085;48.804;9.228;2023-02-28T01:58:52;-0.60;97.70
72936;DHT22;61085;48.804;9.228;2023-02-28T02:01:19;-0.50;97.90
72936;DHT22;61085;48.804;9.228;2023-02-28T02:03:53;-0.60;98.00
72936;DHT22;61085;48.804;9.228;2023-02-28T02:07:03;-0.60;98.30
72936;DHT22;61085;48.804;9.228;2023-02-28T02:09:21;-0.60;98.60
72936;DHT22;61085;48.804;9.228;2023-02-28T02:11:48;-0.60;98.70
72936;DHT22;61085;48.804;9.228;2023-02-28T02:17:39;-0.60;99.00
72936;DHT22;61085;48.804;9.228;2023-02-28T02:37:13;-0.70;99.80
72936;DHT22;61085;48.804;9.228;2023-02-28T02:39:53;-0.60;99.90
72936;DHT22;61085;48.804;9.228;2023-02-28T02:45:21;-0.60;99.90
72936;DHT22;61085;48.804;9.228;2023-02-28T02:47:48;-0.60;99.90
72936;DHT22;61085;48.804;9.228;2023-02-28T02:50:24;-0.60;99.90
72936;DHT22;61085;48.804;9.228;2023-02-28T02:52:54;-0.60;99.90
72936;DHT22;61085;48.804;9.228;2023-02-28T02:55:22;-0.60;99.90
72936;DHT22;61085;48.804;9.228;2023-02-28T02:57:52;-0.50;99.90
72936;DHT22;61085;48.804;9.228;2023-02-28T03:00:22;-0.50;99.90
72936;DHT22;61085;48.804;9.228;2023-02-28T03:02:52;-0.60;99.90
72936;DHT22;61085;48.804;9.228;2023-02-28T03:05:24;-0.60;99.90
72936;DHT22;61085;48.804;9.228;2023-02-28T03:07:50;-0.60;99.90
72936;DHT22;61085;48.804;9.228;2023-02-28T03:10:28;-0.60;99.90
72936;DHT22;61085;48.804;9.228;2023-02-28T03:21:08;-0.40;99.90
72936;DHT22;61085;48.804;9.228;2023-02-28T03:23:40;-0.40;99.90
72936;DHT22;61085;48.804;9.228;2023-02-28T03:26:17;-0.30;99.90
72936;DHT22;61085;48.804;9.228;2023-02-28T03:31:43;-0.30;99.90
72936;DHT22;61085;48.804;9.228;2023-02-28T03:36:45;-0.30;99.90
72936;DHT22;61085;48.804;9.228;2023-02-28T03:39:23;-0.30;99.90
72936;DHT22;61085;48.804;9.228;2023-02-28T03:41:57;-0.30;99.90
72936;DHT22;61085;48.804;9.228;2023-02-28T03:44:32;-0.20;99.90
72936;DHT22;61085;48.804;9.228;2023-02-28T03:47:08;-0.30;99.90
72936;DHT22;61085;48.804;9.228;2023-02-28T03:49:40;-0.20;99.90
72936;DHT22;61085;48.804;9.228;2023-02-28T03:52:13;-0.30;99.90
72936;DHT22;61085;48.804;9.228;2023-02-28T03:54:47;-0.30;99.90
72936;DHT22;61085;48.804;9.228;2023-02-28T03:57:32;-0.30;99.90
72936;DHT22;61085;48.804;9.228;2023-02-28T04:02:42;-0.40;99.90
72936;DHT22;61085;48.804;9.228;2023-02-28T04:05:08;-0.40;99.90
72936;DHT22;61085;48.804;9.228;2023-02-28T04:07:34;-0.30;99.90
72936;DHT22;61085;48.804;9.228;2023-02-28T04:10:00;-0.30;99.90
72936;DHT22;61085;48.804;9.228;2023-02-28T04:12:26;-0.30;99.90
72936;DHT22;61085;48.804;9.228;2023-02-28T04:14:51;-0.30;99.90
72936;DHT22;61085;48.804;9.228;2023-02-28T04:17:17;-0.20;99.90
72936;DHT22;61085;48.804;9.228;2023-02-28T04:19:43;-0.30;99.90
72936;DHT22;61085;48.804;9.228;2023-02-28T04:22:09;-0.30;99.90
72936;DHT22;61085;48.804;9.228;2023-02-28T04:24:35;-0.20;99.90
72936;DHT22;61085;48.804;9.228;2023-02-28T04:27:01;-0.20;99.90
72936;DHT22;61085;48.804;9.228;2023-02-28T04:29:29;-0.30;99.90
72936;DHT22;61085;48.804;9.228;2023-02-28T04:31:59;-0.30;99.90
72936;DHT22;61085;48.804;9.228;2023-02-28T04:34:26;-0.30;99.90
72936;DHT22;61085;48.804;9.228;2023-02-28T04:36:54;-0.20;99.90
72936;DHT22;61085;48.804;9.228;2023-02-28T04:39:24;-0.30;99.90
72936;DHT22;61085;48.804;9.228;2023-02-28T04:41:49;-0.20;99.90
72936;DHT22;61085;48.804;9.228;2023-02-28T04:44:15;-0.20;99.90
72936;DHT22;61085;48.804;9.228;2023-02-28T04:46:42;-0.10;99.90
72936;DHT22;61085;48.804;9.228;2023-02-28T04:49:11;-0.20;99.90
72936;DHT22;61085;48.804;9.228;2023-02-28T04:51:37;-0.20;99.90
72936;DHT22;61085;48.804;9.228;2023-02-28T04:54:02;-0.20;99.90
72936;DHT22;61085;48.804;9.228;2023-02-28T04:56:28;-0.20;99.90
72936;DHT22;61085;48.804;9.228;2023-02-28T04:58:54;-0.20;99.90
72936;DHT22;61085;48.804;9.228;2023-02-28T05:03:50;-0.20;99.90
72936;DHT22;61085;48.804;9.228;2023-02-28T05:06:17;-0.10;99.90
72936;DHT22;61085;48.804;9.228;2023-02-28T05:08:43;-0.20;99.90
72936;DHT22;61085;48.804;9.228;2023-02-28T05:11:15;-0.20;99.90
72936;DHT22;61085;48.804;9.228;2023-02-28T05:13:41;-0.10;99.90
72936;DHT22;61085;48.804;9.228;2023-02-28T05:16:06;0.00;99.90
72936;DHT22;61085;48.804;9.228;2023-02-28T05:18:32;0.00;99.90
72936;DHT22;61085;48.804;9.228;2023-02-28T05:20:58;0.00;99.90
72936;DHT22;61085;48.804;9.228;2023-02-28T05:23:26;-0.10;99.90
72936;DHT22;61085;48.804;9.228;2023-02-28T05:25:53;0.00;99.90
72936;DHT22;61085;48.804;9.228;2023-02-28T05:28:19;0.00;99.90
72936;DHT22;61085;48.804;9.228;2023-02-28T05:30:45;0.00;99.90
72936;DHT22;61085;48.804;9.228;2023-02-28T05:33:12;-0.10;99.90
72936;DHT22;61085;48.804;9.228;2023-02-28T05:35:39;-0.10;99.90
72936;DHT22;61085;48.804;9.228;2023-02-28T05:38:05;0.00;99.90
72936;DHT22;61085;48.804;9.228;2023-02-28T05:40:30;0.00;99.90
72936;DHT22;61085;48.804;9.228;2023-02-28T05:42:56;0.00;99.90
72936;DHT22;61085;48.804;9.228;2023-02-28T05:47:47;-0.10;99.90
72936;DHT22;61085;48.804;9.228;2023-02-28T05:50:13;-0.10;99.90
72936;DHT22;61085;48.804;9.228;2023-02-28T05:52:38;-0.10;99.90
72936;DHT22;61085;48.804;9.228;2023-02-28T05:55:04;0.00;99.90
72936;DHT22;61085;48.804;9.228;2023-02-28T05:57:33;0.00;99.90
72936;DHT22;61085;48.804;9.228;2023-02-28T05:59:58;0.00;99.90
72936;DHT22;61085;48.804;9.228;2023-02-28T06:02:24;0.00;99.90
72936;DHT22;61085;48.804;9.228;2023-02-28T06:04:50;0.10;99.90
72936;DHT22;61085;48.804;9.228;2023-02-28T06:07:15;0.20;99.90
72936;DHT22;61085;48.804;9.228;2023-02-28T06:09:42;0.10;99.90
72936;DHT22;61085;48.804;9.228;2023-02-28T06:12:09;0.20;99.90
72936;DHT22;61085;48.804;9.228;2023-02-28T06:14:36;0.10;99.90
72936;DHT22;61085;48.804;9.228;2023-02-28T06:17:02;0.00;99.90
72936;DHT22;61085;48.804;9.228;2023-02-28T06:19:28;0.10;99.90
72936;DHT22;61085;48.804;9.228;2023-02-28T06:21:58;0.10;99.90
72936;DHT22;61085;48.804;9.228;2023-02-28T06:24:25;0.10;99.90
72936;DHT22;61085;48.804;9.228;2023-02-28T06:26:53;0.10;99.90
72936;DHT22;61085;48.804;9.228;2023-02-28T06:29:18;0.10;99.90
72936;DHT22;61085;48.804;9.228;2023-02-28T06:31:45;0.10;99.90
72936;DHT22;61085;48.804;9.228;2023-02-28T06:34:11;0.10;99.90
72936;DHT22;61085;48.804;9.228;2023-02-28T06:36:41;0.10;99.90
72936;DHT22;61085;48.804;9.228;2023-02-28T06:39:07;0.10;99.90
72936;DHT22;61085;48.804;9.228;2023-02-28T06:41:33;0.20;99.90
72936;DHT22;61085;48.804;9.228;2023-02-28T06:44:14;0.30;99.90
72936;DHT22;61085;48.804;9.228;2023-02-28T06:46:41;0.20;99.90
72936;DHT22;61085;48.804;9.228;2023-02-28T06:49:08;0.30;99.90
72936;DHT22;61085;48.804;9.228;2023-02-28T06:51:38;0.30;99.90
72936;DHT22;61085;48.804;9.228;2023-02-28T06:54:04;0.30;99.90
72936;DHT22;61085;48.804;9.228;2023-02-28T06:56:33;0.30;99.90
72936;DHT22;61085;48.804;9.228;2023-02-28T06:58:58;0.30;99.90
72936;DHT22;61085;48.804;9.228;2023-02-28T07:01:24;0.40;99.90
72936;DHT22;61085;48.804;9.228;2023-02-28T07:03:50;0.30;99.90
72936;DHT22;61085;48.804;9.228;2023-02-28T07:06:18;0.40;99.90
72936;DHT22;61085;48.804;9.228;2023-02-28T07:08:45;0.50;99.90
72936;DHT22;61085;48.804;9.228;2023-02-28T07:11:10;0.50;99.90
72936;DHT22;61085;48.804;9.228;2023-02-28T07:13:36;0.50;99.90
72936;DHT22;61085;48.804;9.228;2023-02-28T07:16:05;0.50;99.90
72936;DHT22;61085;48.804;9.228;2023-02-28T07:18:34;0.40;99.90
72936;DHT22;61085;48.804;9.228;2023-02-28T07:21:02;0.50;99.90
72936;DHT22;61085;48.804;9.228;2023-02-28T07:23:28;0.40;99.90
72936;DHT22;61085;48.804;9.228;2023-02-28T07:25:54;0.40;99.90
72936;DHT22;61085;48.804;9.228;2023-02-28T07:28:19;0.40;99.90
72936;DHT22;61085;48.804;9.228;2023-02-28T07:30:45;0.50;99.90
72936;DHT22;61085;48.804;9.228;2023-02-28T07:33:10;0.50;99.90
72936;DHT22;61085;48.804;9.228;2023-02-28T07:35:36;0.50;99.90
72936;DHT22;61085;48.804;9.228;2023-02-28T07:38:05;0.50;99.90
72936;DHT22;61085;48.804;9.228;2023-02-28T07:40:33;0.50;99.90
72936;DHT22;61085;48.804;9.228;2023-02-28T07:43:00;0.60;99.90
72936;DHT22;61085;48.804;9.228;2023-02-28T07:45:26;0.60;99.90
72936;DHT22;61085;48.804;9.228;2023-02-28T07:47:52;0.60;99.90
72936;DHT22;61085;48.804;9.228;2023-02-28T07:50:18;0.60;99.90
72936;DHT22;61085;48.804;9.228;2023-02-28T07:52:43;0.60;99.70
72936;DHT22;61085;48.804;9.228;2023-02-28T07:55:10;0.70;98.30
72936;DHT22;61085;48.804;9.228;2023-02-28T07:57:35;0.70;97.90
72936;DHT22;61085;48.804;9.228;2023-02-28T08:00:04;1.00;97.80
72936;DHT22;61085;48.804;9.228;2023-02-28T08:02:33;0.80;98.00
72936;DHT22;61085;48.804;9.228;2023-02-28T08:04:59;0.90;96.60
72936;DHT22;61085;48.804;9.228;2023-02-28T08:07:25;0.80;96.90
72936;DHT22;61085;48.804;9.228;2023-02-28T08:09:51;0.80;96.50
72936;DHT22;61085;48.804;9.228;2023-02-28T08:12:16;0.80;97.60
72936;DHT22;61085;48.804;9.228;2023-02-28T08:14:42;0.70;99.00
72936;DHT22;61085;48.804;9.228;2023-02-28T08:17:08;0.80;99.40
72936;DHT22;61085;48.804;9.228;2023-02-28T08:19:34;0.90;99.20
72936;DHT22;61085;48.804;9.228;2023-02-28T08:22:00;0.90;98.40
72936;DHT22;61085;48.804;9.228;2023-02-28T08:24:26;1.00;97.30
72936;DHT22;61085;48.804;9.228;2023-02-28T08:26:51;1.00;96.50
72936;DHT22;61085;48.804;9.228;2023-02-28T08:29:17;1.10;95.70
72936;DHT22;61085;48.804;9.228;2023-02-28T08:31:42;1.00;95.20
72936;DHT22;61085;48.804;9.228;2023-02-28T08:34:10;0.90;95.30
72936;DHT22;61085;48.804;9.228;2023-02-28T08:36:37;0.90;95.60
72936;DHT22;61085;48.804;9.228;2023-02-28T08:39:03;1.00;95.60
72936;DHT22;61085;48.804;9.228;2023-02-28T08:41:29;0.90;95.30
72936;DHT22;61085;48.804;9.228;2023-02-28T08:43:55;0.90;96.00
72936;DHT22;61085;48.804;9.228;2023-02-28T08:48:46;1.00;95.30
72936;DHT22;61085;48.804;9.228;2023-02-28T08:51:15;0.90;95.00
72936;DHT22;61085;48.804;9.228;2023-02-28T08:53:44;1.00;95.40
72936;DHT22;61085;48.804;9.228;2023-02-28T08:56:12;1.00;94.80
72936;DHT22;61085;48.804;9.228;2023-02-28T08:58:38;1.10;94.30
72936;DHT22;61085;48.804;9.228;2023-02-28T09:01:18;1.10;94.50
72936;DHT22;61085;48.804;9.228;2023-02-28T09:03:45;1.20;94.80
72936;DHT22;61085;48.804;9.228;2023-02-28T09:06:12;1.20;94.20
72936;DHT22;61085;48.804;9.228;2023-02-28T09:08:38;1.10;94.20
72936;DHT22;61085;48.804;9.228;2023-02-28T09:11:05;1.20;94.20
72936;DHT22;61085;48.804;9.228;2023-02-28T09:13:31;1.30;94.30
72936;DHT22;61085;48.804;9.228;2023-02-28T09:15:58;1.40;94.00
72936;DHT22;61085;48.804;9.228;2023-02-28T09:18:24;1.40;93.30
72936;DHT22;61085;48.804;9.228;2023-02-28T09:20:50;1.40;93.60
72936;DHT22;61085;48.804;9.228;2023-02-28T09:23:16;1.50;93.70
72936;DHT22;61085;48.804;9.228;2023-02-28T09:25:47;1.70;93.50
72936;DHT22;61085;48.804;9.228;2023-02-28T09:28:13;1.80;91.90
72936;DHT22;61085;48.804;9.228;2023-02-28T09:30:41;1.70;91.80
72936;DHT22;61085;48.804;9.228;2023-02-28T09:35:32;1.80;91.90
72936;DHT22;61085;48.804;9.228;2023-02-28T09:37:58;1.80;91.80
72936;DHT22;61085;48.804;9.228;2023-02-28T09:40:25;1.80;91.70
72936;DHT22;61085;48.804;9.228;2023-02-28T09:42:53;1.80;91.70
72936;DHT22;61085;48.804;9.228;2023-02-28T09:45:22;1.80;91.20
72936;DHT22;61085;48.804;9.228;2023-02-28T09:47:50;1.60;91.40
72936;DHT22;61085;48.804;9.228;2023-02-28T09:52:52;1.80;92.10
72936;DHT22;61085;48.804;9.228;2023-02-28T09:55:30;1.80;91.60
72936;DHT22;61085;48.804;9.228;2023-02-28T09:57:58;1.90;91.10
72936;DHT22;61085;48.804;9.228;2023-02-28T10:00:36;1.80;91.00
72936;DHT22;61085;48.804;9.228;2023-02-28T10:03:36;2.00;91.00
72936;DHT22;61085;48.804;9.228;2023-02-28T10:06:14;2.00;90.40
72936;DHT22;61085;48.804;9.228;2023-02-28T10:09:07;2.10;90.00
72936;DHT22;61085;48.804;9.228;2023-02-28T10:11:40;2.10;88.80
72936;DHT22;61085;48.804;9.228;2023-02-28T10:14:19;2.10;88.50
72936;DHT22;61085;48.804;9.228;2023-02-28T10:22:19;2.20;88.80
72936;DHT22;61085;48.804;9.228;2023-02-28T10:24:49;2.10;88.10
72936;DHT22;61085;48.804;9.228;2023-02-28T10:27:20;2.30;89.90
72936;DHT22;61085;48.804;9.228;2023-02-28T10:29:52;2.50;87.20
72936;DHT22;61085;48.804;9.228;2023-02-28T10:32:40;2.60;85.80
72936;DHT22;61085;48.804;9.228;2023-02-28T10:37:38;2.60;84.70
72936;DHT22;61085;48.804;9.228;2023-02-28T10:40:24;2.60;85.60
72936;DHT22;61085;48.804;9.228;2023-02-28T10:43:03;2.60;84.90
72936;DHT22;61085;48.804;9.228;2023-02-28T10:45:30;2.80;83.70
72936;DHT22;61085;48.804;9.228;2023-02-28T10:53:16;3.30;82.30
72936;DHT22;61085;48.804;9.228;2023-02-28T10:55:43;3.30;79.90
72936;DHT22;61085;48.804;9.228;2023-02-28T10:58:25;3.30;80.30
72936;DHT22;61085;48.804;9.228;2023-02-28T11:00:51;3.20;79.70
72936;DHT22;61085;48.804;9.228;2023-02-28T11:03:34;3.40;80.10
72936;DHT22;61085;48.804;9.228;2023-02-28T11:06:07;3.30;80.00
72936;DHT22;61085;48.804;9.228;2023-02-28T11:08:33;3.40;79.80
72936;DHT22;61085;48.804;9.228;2023-02-28T11:11:04;3.40;78.90
72936;DHT22;61085;48.804;9.228;2023-02-28T11:13:35;3.60;79.00
72936;DHT22;61085;48.804;9.228;2023-02-28T11:18:52;4.00;72.50
72936;DHT22;61085;48.804;9.228;2023-02-28T11:21:31;4.00;73.60
72936;DHT22;61085;48.804;9.228;2023-02-28T11:26:45;4.20;73.80
72936;DHT22;61085;48.804;9.228;2023-02-28T11:29:29;4.20;72.50
72936;DHT22;61085;48.804;9.228;2023-02-28T11:32:18;4.30;71.50
72936;DHT22;61085;48.804;9.228;2023-02-28T11:34:46;4.30;71.50
72936;DHT22;61085;48.804;9.228;2023-02-28T11:37:18;4.40;71.70
72936;DHT22;61085;48.804;9.228;2023-02-28T11:39:48;4.20;72.30
72936;DHT22;61085;48.804;9.228;2023-02-28T11:47:48;4.50;71.60
72936;DHT22;61085;48.804;9.228;2023-02-28T11:50:49;4.40;70.60
72936;DHT22;61085;48.804;9.228;2023-02-28T11:56:33;4.80;69.00
72936;DHT22;61085;48.804;9.228;2023-02-28T12:02:04;4.90;67.30
72936;DHT22;61085;48.804;9.228;2023-02-28T12:10:26;5.00;67.40
72936;DHT22;61085;48.804;9.228;2023-02-28T12:16:00;4.70;68.30
72936;DHT22;61085;48.804;9.228;2023-02-28T12:21:56;5.00;68.40
72936;DHT22;61085;48.804;9.228;2023-02-28T12:27:03;5.20;66.00
72936;DHT22;61085;48.804;9.228;2023-02-28T12:32:16;5.40;65.60
72936;DHT22;61085;48.804;9.228;2023-02-28T12:34:47;5.40;63.60
72936;DHT22;61085;48.804;9.228;2023-02-28T12:37:21;5.50;63.80
72936;DHT22;61085;48.804;9.228;2023-02-28T12:39:54;5.40;63.80
72936;DHT22;61085;48.804;9.228;2023-02-28T12:42:28;5.40;64.50
72936;DHT22;61085;48.804;9.228;2023-02-28T12:45:01;5.80;73.20
72936;DHT22;61085;48.804;9.228;2023-02-28T12:47:28;5.60;62.20
72936;DHT22;61085;48.804;9.228;2023-02-28T12:49:57;5.30;63.80
72936;DHT22;61085;48.804;9.228;2023-02-28T12:52:35;5.30;64.80
72936;DHT22;61085;48.804;9.228;2023-02-28T12:55:17;5.30;64.10
72936;DHT22;61085;48.804;9.228;2023-02-28T13:00:22;5.50;62.80
72936;DHT22;61085;48.804;9.228;2023-02-28T13:03:12;5.50;62.60
72936;DHT22;61085;48.804;9.228;2023-02-28T13:09:01;5.40;61.40
72936;DHT22;61085;48.804;9.228;2023-02-28T13:11:49;5.60;61.60
72936;DHT22;61085;48.804;9.228;2023-02-28T13:19:26;5.50;61.30
72936;DHT22;61085;48.804;9.228;2023-02-28T13:21:53;5.60;62.20
72936;DHT22;61085;48.804;9.228;2023-02-28T13:24:50;5.60;60.10
72936;DHT22;61085;48.804;9.228;2023-02-28T13:27:33;5.80;60.40
72936;DHT22;61085;48.804;9.228;2023-02-28T13:29:59;5.70;59.30
72936;DHT22;61085;48.804;9.228;2023-02-28T13:39:56;5.70;59.50
72936;DHT22;61085;48.804;9.228;2023-02-28T13:45:19;6.10;58.60
72936;DHT22;61085;48.804;9.228;2023-02-28T13:47:58;5.90;57.20
72936;DHT22;61085;48.804;9.228;2023-02-28T14:04:39;6.30;56.00
72936;DHT22;61085;48.804;9.228;2023-02-28T14:07:09;6.20;56.70
72936;DHT22;61085;48.804;9.228;2023-02-28T14:09:46;6.20;56.10
72936;DHT22;61085;48.804;9.228;2023-02-28T14:15:38;6.30;56.10
72936;DHT22;61085;48.804;9.228;2023-02-28T14:18:27;6.40;55.80
72936;DHT22;61085;48.804;9.228;2023-02-28T14:21:12;6.40;55.60
72936;DHT22;61085;48.804;9.228;2023-02-28T14:32:03;6.20;56.20
72936;DHT22;61085;48.804;9.228;2023-02-28T14:37:23;6.40;56.00
72936;DHT22;61085;48.804;9.228;2023-02-28T14:39:51;6.40;55.60
72936;DHT22;61085;48.804;9.228;2023-02-28T14:44:59;6.30;55.50
72936;DHT22;61085;48.804;9.228;2023-02-28T14:47:30;6.30;56.00
72936;DHT22;61085;48.804;9.228;2023-02-28T14:50:00;6.40;56.40
72936;DHT22;61085;48.804;9.228;2023-02-28T14:52:28;6.40;57.00
72936;DHT22;61085;48.804;9.228;2023-02-28T14:57:42;6.40;56.00
72936;DHT22;61085;48.804;9.228;2023-02-28T15:02:46;6.20;57.30
72936;DHT22;61085;48.804;9.228;2023-02-28T15:05:31;6.20;57.20
72936;DHT22;61085;48.804;9.228;2023-02-28T15:08:14;6.20;57.70
72936;DHT22;61085;48.804;9.228;2023-02-28T15:10:49;6.30;57.40
72936;DHT22;61085;48.804;9.228;2023-02-28T15:13:16;6.40;58.10
72936;DHT22;61085;48.804;9.228;2023-02-28T15:15:54;6.40;57.60
72936;DHT22;61085;48.804;9.228;2023-02-28T15:21:31;6.30;57.90
72936;DHT22;61085;48.804;9.228;2023-02-28T15:24:15;6.20;58.20
72936;DHT22;61085;48.804;9.228;2023-02-28T15:26:46;6.20;58.80
72936;DHT22;61085;48.804;9.228;2023-02-28T15:29:15;6.20;59.30
72936;DHT22;61085;48.804;9.228;2023-02-28T15:31:47;6.10;59.70
72936;DHT22;61085;48.804;9.228;2023-02-28T15:34:20;6.00;59.70
72936;DHT22;61085;48.804;9.228;2023-02-28T15:36:47;6.00;59.60
72936;DHT22;61085;48.804;9.228;2023-02-28T15:39:27;6.10;60.10
72936;DHT22;61085;48.804;9.228;2023-02-28T15:42:16;6.10;61.00
72936;DHT22;61085;48.804;9.228;2023-02-28T15:44:43;6.20;60.20
72936;DHT22;61085;48.804;9.228;2023-02-28T15:47:23;6.10;59.40
72936;DHT22;61085;48.804;9.228;2023-02-28T15:49:54;6.00;59.80
72936;DHT22;61085;48.804;9.228;2023-02-28T15:52:41;6.00;60.90
72936;DHT22;61085;48.804;9.228;2023-02-28T15:55:11;6.00;61.60
72936;DHT22;61085;48.804;9.228;2023-02-28T15:57:42;6.00;62.40
72936;DHT22;61085;48.804;9.228;2023-02-28T16:00:16;5.90;61.80
72936;DHT22;61085;48.804;9.228;2023-02-28T16:02:42;5.80;62.10
72936;DHT22;61085;48.804;9.228;2023-02-28T16:07:34;5.80;63.20
72936;DHT22;61085;48.804;9.228;2023-02-28T16:10:01;5.90;63.30
72936;DHT22;61085;48.804;9.228;2023-02-28T16:12:29;5.90;63.10
72936;DHT22;61085;48.804;9.228;2023-02-28T16:14:57;5.80;63.30
72936;DHT22;61085;48.804;9.228;2023-02-28T16:17:29;5.80;64.30
72936;DHT22;61085;48.804;9.228;2023-02-28T16:19:55;5.80;64.30
72936;DHT22;61085;48.804;9.228;2023-02-28T16:22:21;5.70;63.90
72936;DHT22;61085;48.804;9.228;2023-02-28T16:24:47;5.70;65.00
72936;DHT22;61085;48.804;9.228;2023-02-28T16:27:31;5.70;64.90
72936;DHT22;61085;48.804;9.228;2023-02-28T16:29:57;5.60;65.30
72936;DHT22;61085;48.804;9.228;2023-02-28T16:32:23;5.60;65.40
72936;DHT22;61085;48.804;9.228;2023-02-28T16:34:49;5.60;65.00
72936;DHT22;61085;48.804;9.228;2023-02-28T16:37:16;5.50;65.40
72936;DHT22;61085;48.804;9.228;2023-02-28T16:39:43;5.50;65.90
72936;DHT22;61085;48.804;9.228;2023-02-28T16:42:25;5.50;66.10
72936;DHT22;61085;48.804;9.228;2023-02-28T16:44:52;5.40;66.40
72936;DHT22;61085;48.804;9.228;2023-02-28T16:47:18;5.40;65.30
72936;DHT22;61085;48.804;9.228;2023-02-28T16:49:44;5.40;66.80
72936;DHT22;61085;48.804;9.228;2023-02-28T16:52:10;5.40;66.40
72936;DHT22;61085;48.804;9.228;2023-02-28T16:54:40;5.40;66.80
72936;DHT22;61085;48.804;9.228;2023-02-28T16:57:16;5.30;67.60
72936;DHT22;61085;48.804;9.228;2023-02-28T16:59:42;5.30;68.00
72936;DHT22;61085;48.804;9.228;2023-02-28T17:02:14;5.20;68.30
72936;DHT22;61085;48.804;9.228;2023-02-28T17:04:43;5.20;68.20
72936;DHT22;61085;48.804;9.228;2023-02-28T17:07:11;5.10;68.80
72936;DHT22;61085;48.804;9.228;2023-02-28T17:10:02;5.40;72.40
72936;DHT22;61085;48.804;9.228;2023-02-28T17:12:41;5.20;70.10
72936;DHT22;61085;48.804;9.228;2023-02-28T17:15:08;5.20;70.60
72936;DHT22;61085;48.804;9.228;2023-02-28T17:17:34;5.10;71.40
72936;DHT22;61085;48.804;9.228;2023-02-28T17:20:00;5.10;71.30
72936;DHT22;61085;48.804;9.228;2023-02-28T17:22:25;5.00;71.30
72936;DHT22;61085;48.804;9.228;2023-02-28T17:24:52;5.00;72.00
72936;DHT22;61085;48.804;9.228;2023-02-28T17:27:21;5.00;72.40
72936;DHT22;61085;48.804;9.228;2023-02-28T17:29:47;4.80;72.70
72936;DHT22;61085;48.804;9.228;2023-02-28T17:32:12;4.90;73.90
72936;DHT22;61085;48.804;9.228;2023-02-28T17:34:41;4.80;81.40
72936;DHT22;61085;48.804;9.228;2023-02-28T17:37:08;4.80;75.90
72936;DHT22;61085;48.804;9.228;2023-02-28T17:39:34;4.80;75.00
72936;DHT22;61085;48.804;9.228;2023-02-28T17:42:00;4.70;75.80
72936;DHT22;61085;48.804;9.228;2023-02-28T17:44:25;4.70;77.10
72936;DHT22;61085;48.804;9.228;2023-02-28T17:46:52;4.60;78.00
72936;DHT22;61085;48.804;9.228;2023-02-28T17:49:18;4.50;78.70
72936;DHT22;61085;48.804;9.228;2023-02-28T17:51:44;4.50;80.40
72936;DHT22;61085;48.804;9.228;2023-02-28T17:54:10;4.40;80.30
72936;DHT22;61085;48.804;9.228;2023-02-28T17:56:35;4.40;80.50
72936;DHT22;61085;48.804;9.228;2023-02-28T17:59:01;4.30;81.60
72936;DHT22;61085;48.804;9.228;2023-02-28T18:01:27;4.30;82.00
72936;DHT22;61085;48.804;9.228;2023-02-28T18:03:54;4.20;82.20
72936;DHT22;61085;48.804;9.228;2023-02-28T18:06:23;4.20;82.70
72936;DHT22;61085;48.804;9.228;2023-02-28T18:08:50;4.10;83.30
72936;DHT22;61085;48.804;9.228;2023-02-28T18:11:20;4.10;83.80
72936;DHT22;61085;48.804;9.228;2023-02-28T18:13:48;4.00;84.40
72936;DHT22;61085;48.804;9.228;2023-02-28T18:16:16;3.90;86.00
72936;DHT22;61085;48.804;9.228;2023-02-28T18:18:43;3.80;85.60
72936;DHT22;61085;48.804;9.228;2023-02-28T18:21:11;3.90;86.20
72936;DHT22;61085;48.804;9.228;2023-02-28T18:23:37;3.90;85.50
72936;DHT22;61085;48.804;9.228;2023-02-28T18:26:06;3.80;85.60
72936;DHT22;61085;48.804;9.228;2023-02-28T18:28:33;3.80;85.80
72936;DHT22;61085;48.804;9.228;2023-02-28T18:31:05;3.70;86.10
72936;DHT22;61085;48.804;9.228;2023-02-28T18:33:39;3.70;86.40
72936;DHT22;61085;48.804;9.228;2023-02-28T18:36:06;4.00;87.00
72936;DHT22;61085;48.804;9.228;2023-02-28T18:38:32;3.60;87.20
72936;DHT22;61085;48.804;9.228;2023-02-28T18:41:02;3.60;87.30
72936;DHT22;61085;48.804;9.228;2023-02-28T18:43:30;3.50;88.00